sensor_id;sensor_type;location;lat;lon;timestamp;pressure;altitude;pressure_sealevel;temperature;humidity
10712;BME280;5407;51.234;6.804;2022-10-23T00:00:24;100980.03;;;24.37;47.77
10712;BME280;5407;51.234;6.804;2022-10-23T00:02:52;100984.75;;;24.37;47.50
10712;BME280;5407;51.234;6.804;2022-10-23T00:05:19;100987.94;;;24.35;47.56
10712;BME280;5407;51.234;6.804;2022-10-23T00:07:50;100982.41;;;24.35;47.70
10712;BME280;5407;51.234;6.804;2022-10-23T00:10:18;100982.34;;;24.39;47.85
10712;BME280;5407;51.234;6.804;2022-10-23T00:12:46;100975.97;;;24.42;47.51
10712;BME280;5407;51.234;6.804;2022-10-23T00:15:15;100979.53;;;24.42;47.48
10712;BME280;5407;51.234;6.804;2022-10-23T00:17:43;100975.13;;;24.45;47.30
10712;BME280;5407;51.234;6.804;2022-10-23T00:20:11;100980.28;;;24.43;47.54
10712;BME280;5407;51.234;6.804;2022-10-23T00:22:38;100968.50;;;24.42;47.40
10712;BME280;5407;51.234;6.804;2022-10-23T00:25:08;100972.88;;;24.40;47.29
10712;BME280;5407;51.234;6.804;2022-10-23T00:27:36;100973.31;;;24.38;47.35
10712;BME280;5407;51.234;6.804;2022-10-23T00:30:04;100974.50;;;24.37;47.64
10712;BME280;5407;51.234;6.804;2022-10-23T00:32:31;100976.91;;;24.35;47.68
10712;BME280;5407;51.234;6.804;2022-10-23T00:34:58;100969.81;;;24.34;47.60
10712;BME280;5407;51.234;6.804;2022-10-23T00:37:25;100972.22;;;24.32;47.61
10712;BME280;5407;51.234;6.804;2022-10-23T00:39:52;100966.38;;;24.30;47.67
10712;BME280;5407;51.234;6.804;2022-10-23T00:42:22;100971.53;;;24.28;47.45
10712;BME280;5407;51.234;6.804;2022-10-23T00:45:16;100977.50;;;24.27;47.57
10712;BME280;5407;51.234;6.804;2022-10-23T00:47:43;100979.03;;;24.28;47.66
10712;BME280;5407;51.234;6.804;2022-10-23T00:50:11;100971.19;;;24.26;47.73
10712;BME280;5407;51.234;6.804;2022-10-23T00:52:41;100962.56;;;24.24;47.66
10712;BME280;5407;51.234;6.804;2022-10-23T00:55:11;100954.28;;;24.24;47.68
10712;BME280;5407;51.234;6.804;2022-10-23T00:57:42;100952.75;;;24.23;47.70
10712;BME280;5407;51.234;6.804;2022-10-23T01:00:13;100955.16;;;24.21;47.69
10712;BME280;5407;51.234;6.804;2022-10-23T01:02:40;100943.34;;;24.21;47.60
10712;BME280;5407;51.234;6.804;2022-10-23T01:05:08;100941.81;;;24.20;47.49
10712;BME280;5407;51.234;6.804;2022-10-23T01:07:39;100952.03;;;24.19;47.54
10712;BME280;5407;51.234;6.804;2022-10-23T01:10:14;100951.28;;;24.19;47.41
10712;BME280;5407;51.234;6.804;2022-10-23T01:12:50;100946.19;;;24.17;47.52
10712;BME280;5407;51.234;6.804;2022-10-23T01:15:22;100940.66;;;24.17;47.60
10712;BME280;5407;51.234;6.804;2022-10-23T01:17:55;100946.63;;;24.16;47.43
10712;BME280;5407;51.234;6.804;2022-10-23T01:20:36;100948.59;;;24.15;47.50
10712;BME280;5407;51.234;6.804;2022-10-23T01:23:34;100948.22;;;24.13;47.47
10712;BME280;5407;51.234;6.804;2022-10-23T01:26:17;100944.28;;;24.14;47.38
10712;BME280;5407;51.234;6.804;2022-10-23T01:28:53;100949.03;;;24.14;47.67
10712;BME280;5407;51.234;6.804;2022-10-23T01:31:29;100945.47;;;24.13;47.67
10712;BME280;5407;51.234;6.804;2022-10-23T01:34:04;100942.72;;;24.13;47.63
10712;BME280;5407;51.234;6.804;2022-10-23T01:36:34;100935.66;;;24.12;47.69
10712;BME280;5407;51.234;6.804;2022-10-23T01:39:07;100931.34;;;24.11;47.59
10712;BME280;5407;51.234;6.804;2022-10-23T01:41:39;100927.03;;;24.10;47.59
10712;BME280;5407;51.234;6.804;2022-10-23T01:44:12;100918.75;;;24.10;47.42
10712;BME280;5407;51.234;6.804;2022-10-23T01:46:40;100912.06;;;24.11;47.42
10712;BME280;5407;51.234;6.804;2022-10-23T01:49:10;100916.00;;;24.10;47.45
10712;BME280;5407;51.234;6.804;2022-10-23T01:51:40;100908.94;;;24.09;47.64
10712;BME280;5407;51.234;6.804;2022-10-23T01:54:09;100912.91;;;24.08;47.46
10712;BME280;5407;51.234;6.804;2022-10-23T01:56:40;100908.16;;;24.09;47.67
10712;BME280;5407;51.234;6.804;2022-10-23T01:59:13;100905.03;;;24.07;47.60
10712;BME280;5407;51.234;6.804;2022-10-23T02:01:44;100897.56;;;24.07;47.56
10712;BME280;5407;51.234;6.804;2022-10-23T02:04:14;100905.84;;;24.07;47.43
10712;BME280;5407;51.234;6.804;2022-10-23T02:06:43;100900.31;;;24.07;47.33
10712;BME280;5407;51.234;6.804;2022-10-23T02:09:10;100890.50;;;24.06;47.62
10712;BME280;5407;51.234;6.804;2022-10-23T02:11:42;100883.44;;;24.05;47.58
10712;BME280;5407;51.234;6.804;2022-10-23T02:14:19;100887.41;;;24.04;47.56
10712;BME280;5407;51.234;6.804;2022-10-23T02:16:51;100891.72;;;24.05;47.44
10712;BME280;5407;51.234;6.804;2022-10-23T02:19:24;100889.38;;;24.04;47.54
10712;BME280;5407;51.234;6.804;2022-10-23T02:22:08;100875.59;;;24.04;47.46
10712;BME280;5407;51.234;6.804;2022-10-23T02:24:40;100884.66;;;24.04;47.66
10712;BME280;5407;51.234;6.804;2022-10-23T02:27:11;100873.63;;;24.04;47.63
10712;BME280;5407;51.234;6.804;2022-10-23T02:29:44;100872.06;;;24.03;47.36
10712;BME280;5407;51.234;6.804;2022-10-23T02:32:14;100866.56;;;24.03;47.45
10712;BME280;5407;51.234;6.804;2022-10-23T02:34:41;100859.50;;;24.02;47.75
10712;BME280;5407;51.234;6.804;2022-10-23T02:37:09;100856.72;;;24.02;47.68
10712;BME280;5407;51.234;6.804;2022-10-23T02:39:36;100852.44;;;24.01;47.53
10712;BME280;5407;51.234;6.804;2022-10-23T02:42:07;100850.88;;;24.00;47.71
10712;BME280;5407;51.234;6.804;2022-10-23T02:44:53;100842.59;;;24.00;47.60
10712;BME280;5407;51.234;6.804;2022-10-23T02:47:31;100841.81;;;24.00;47.63
10712;BME280;5407;51.234;6.804;2022-10-23T02:50:06;100844.56;;;24.00;47.53
10712;BME280;5407;51.234;6.804;2022-10-23T02:52:45;100839.50;;;23.98;47.55
10712;BME280;5407;51.234;6.804;2022-10-23T02:55:26;100837.50;;;23.99;47.56
10712;BME280;5407;51.234;6.804;2022-10-23T02:58:01;100836.75;;;23.98;47.66
10712;BME280;5407;51.234;6.804;2022-10-23T03:00:36;100840.25;;;23.99;47.64
10712;BME280;5407;51.234;6.804;2022-10-23T03:03:08;100840.72;;;23.97;47.65
10712;BME280;5407;51.234;6.804;2022-10-23T03:05:38;100836.75;;;23.98;47.56
10712;BME280;5407;51.234;6.804;2022-10-23T03:08:08;100837.16;;;23.97;47.76
10712;BME280;5407;51.234;6.804;2022-10-23T03:10:35;100826.94;;;23.97;47.61
10712;BME280;5407;51.234;6.804;2022-10-23T03:13:04;100832.44;;;23.97;47.60
10712;BME280;5407;51.234;6.804;2022-10-23T03:15:40;100822.63;;;23.96;47.67
10712;BME280;5407;51.234;6.804;2022-10-23T03:18:11;100824.16;;;23.97;47.73
10712;BME280;5407;51.234;6.804;2022-10-23T03:20:39;100821.84;;;23.96;47.72
10712;BME280;5407;51.234;6.804;2022-10-23T03:23:07;100810.81;;;23.96;47.84
10712;BME280;5407;51.234;6.804;2022-10-23T03:25:37;100807.28;;;23.95;47.82
10712;BME280;5407;51.234;6.804;2022-10-23T03:28:04;100803.75;;;23.95;47.79
10712;BME280;5407;51.234;6.804;2022-10-23T03:30:33;100801.44;;;23.93;47.75
10712;BME280;5407;51.234;6.804;2022-10-23T03:33:01;100793.56;;;23.92;47.76
10712;BME280;5407;51.234;6.804;2022-10-23T03:35:28;100787.31;;;23.91;47.93
10712;BME280;5407;51.234;6.804;2022-10-23T03:37:55;100776.28;;;23.91;47.73
10712;BME280;5407;51.234;6.804;2022-10-23T03:40:25;100783.75;;;23.91;47.83
10712;BME280;5407;51.234;6.804;2022-10-23T03:42:51;100781.00;;;23.91;47.76
10712;BME280;5407;51.234;6.804;2022-10-23T03:45:18;100780.25;;;23.90;47.76
10712;BME280;5407;51.234;6.804;2022-10-23T03:47:47;100785.75;;;23.90;47.96
10712;BME280;5407;51.234;6.804;2022-10-23T03:50:17;100784.19;;;23.89;47.79
10712;BME280;5407;51.234;6.804;2022-10-23T03:52:44;100789.72;;;23.89;47.93
10712;BME280;5407;51.234;6.804;2022-10-23T03:55:12;100788.94;;;23.89;48.07
10712;BME280;5407;51.234;6.804;2022-10-23T03:57:38;100792.47;;;23.89;47.91
10712;BME280;5407;51.234;6.804;2022-10-23T04:00:06;100795.22;;;23.89;47.90
10712;BME280;5407;51.234;6.804;2022-10-23T04:02:42;100796.78;;;23.90;47.97
10712;BME280;5407;51.234;6.804;2022-10-23T04:05:09;100805.47;;;23.89;47.93
10712;BME280;5407;51.234;6.804;2022-10-23T04:07:39;100807.41;;;23.88;47.95
10712;BME280;5407;51.234;6.804;2022-10-23T04:10:07;100795.63;;;23.88;48.05
10712;BME280;5407;51.234;6.804;2022-10-23T04:12:34;100797.97;;;23.89;48.05
10712;BME280;5407;51.234;6.804;2022-10-23T04:15:01;100796.00;;;23.90;47.95
10712;BME280;5407;51.234;6.804;2022-10-23T04:17:27;100796.78;;;23.90;48.02
10712;BME280;5407;51.234;6.804;2022-10-23T04:19:55;100791.28;;;23.90;48.08
10712;BME280;5407;51.234;6.804;2022-10-23T04:22:22;100791.28;;;23.90;48.07
10712;BME280;5407;51.234;6.804;2022-10-23T04:24:50;100791.28;;;23.90;48.04
10712;BME280;5407;51.234;6.804;2022-10-23T04:27:17;100779.44;;;23.90;47.97
10712;BME280;5407;51.234;6.804;2022-10-23T04:29:44;100779.44;;;23.90;47.98
10712;BME280;5407;51.234;6.804;2022-10-23T04:32:11;100783.00;;;23.90;48.01
10712;BME280;5407;51.234;6.804;2022-10-23T04:34:38;100779.03;;;23.91;47.96
10712;BME280;5407;51.234;6.804;2022-10-23T04:37:05;100769.22;;;23.90;47.86
10712;BME280;5407;51.234;6.804;2022-10-23T04:39:32;100769.22;;;23.90;47.97
10712;BME280;5407;51.234;6.804;2022-10-23T04:42:00;100774.72;;;23.90;47.80
10712;BME280;5407;51.234;6.804;2022-10-23T04:44:27;100772.75;;;23.91;47.75
10712;BME280;5407;51.234;6.804;2022-10-23T04:46:54;100777.50;;;23.90;47.84
10712;BME280;5407;51.234;6.804;2022-10-23T04:49:22;100763.72;;;23.90;47.60
10712;BME280;5407;51.234;6.804;2022-10-23T04:52:09;100774.72;;;23.90;47.81
10712;BME280;5407;51.234;6.804;2022-10-23T04:54:36;100769.22;;;23.90;47.77
10712;BME280;5407;51.234;6.804;2022-10-23T04:57:23;100758.63;;;23.89;47.70
10712;BME280;5407;51.234;6.804;2022-10-23T05:00:08;100751.13;;;23.89;47.83
10712;BME280;5407;51.234;6.804;2022-10-23T05:02:43;100744.84;;;23.89;47.78
10712;BME280;5407;51.234;6.804;2022-10-23T05:05:12;100740.13;;;23.89;47.73
10712;BME280;5407;51.234;6.804;2022-10-23T05:08:03;100751.13;;;23.89;47.52
10712;BME280;5407;51.234;6.804;2022-10-23T05:10:59;100745.63;;;23.89;47.64
10712;BME280;5407;51.234;6.804;2022-10-23T05:13:27;100743.28;;;23.88;47.75
10712;BME280;5407;51.234;6.804;2022-10-23T05:15:57;100743.69;;;23.86;47.80
10712;BME280;5407;51.234;6.804;2022-10-23T05:18:26;100738.19;;;23.86;47.67
10712;BME280;5407;51.234;6.804;2022-10-23T05:20:58;100734.69;;;23.86;47.86
10712;BME280;5407;51.234;6.804;2022-10-23T05:23:29;100736.22;;;23.87;47.77
10712;BME280;5407;51.234;6.804;2022-10-23T05:26:00;100727.16;;;23.86;47.90
10712;BME280;5407;51.234;6.804;2022-10-23T05:28:31;100717.34;;;23.85;47.76
10712;BME280;5407;51.234;6.804;2022-10-23T05:30:59;100717.34;;;23.85;47.72
10712;BME280;5407;51.234;6.804;2022-10-23T05:33:28;100720.91;;;23.86;47.81
10712;BME280;5407;51.234;6.804;2022-10-23T05:35:56;100718.91;;;23.86;47.96
10712;BME280;5407;51.234;6.804;2022-10-23T05:38:25;100711.84;;;23.85;47.77
10712;BME280;5407;51.234;6.804;2022-10-23T05:40:54;100709.88;;;23.86;47.98
10712;BME280;5407;51.234;6.804;2022-10-23T05:43:22;100700.81;;;23.85;47.88
10712;BME280;5407;51.234;6.804;2022-10-23T05:46:13;100708.31;;;23.85;47.88
10712;BME280;5407;51.234;6.804;2022-10-23T05:49:02;100699.28;;;23.84;47.80
10712;BME280;5407;51.234;6.804;2022-10-23T05:51:52;100698.06;;;23.85;47.96
10712;BME280;5407;51.234;6.804;2022-10-23T05:54:22;100699.28;;;23.84;47.90
10712;BME280;5407;51.234;6.804;2022-10-23T05:56:58;100697.72;;;23.83;47.82
10712;BME280;5407;51.234;6.804;2022-10-23T05:59:41;100706.00;;;23.83;47.92
10712;BME280;5407;51.234;6.804;2022-10-23T06:02:38;100689.13;;;23.81;48.00
10712;BME280;5407;51.234;6.804;2022-10-23T06:05:13;100685.16;;;23.82;47.87
10712;BME280;5407;51.234;6.804;2022-10-23T06:07:56;100678.09;;;23.81;47.90
10712;BME280;5407;51.234;6.804;2022-10-23T06:10:24;100680.09;;;23.81;47.80
10712;BME280;5407;51.234;6.804;2022-10-23T06:12:52;100676.53;;;23.80;47.85
10712;BME280;5407;51.234;6.804;2022-10-23T06:15:18;100682.84;;;23.81;47.86
10712;BME280;5407;51.234;6.804;2022-10-23T06:18:05;100679.31;;;23.80;48.06
10712;BME280;5407;51.234;6.804;2022-10-23T06:20:37;100680.09;;;23.81;47.98
10712;BME280;5407;51.234;6.804;2022-10-23T06:23:10;100682.84;;;23.81;48.02
10712;BME280;5407;51.234;6.804;2022-10-23T06:25:55;100674.97;;;23.79;47.94
10712;BME280;5407;51.234;6.804;2022-10-23T06:28:45;100676.53;;;23.80;47.79
10712;BME280;5407;51.234;6.804;2022-10-23T06:31:13;100674.97;;;23.79;47.94
10712;BME280;5407;51.234;6.804;2022-10-23T06:33:42;100672.22;;;23.79;47.86
10712;BME280;5407;51.234;6.804;2022-10-23T06:36:09;100668.69;;;23.79;47.85
10712;BME280;5407;51.234;6.804;2022-10-23T06:38:39;100667.91;;;23.78;47.86
10712;BME280;5407;51.234;6.804;2022-10-23T06:41:12;100673.41;;;23.78;47.86
10712;BME280;5407;51.234;6.804;2022-10-23T06:43:39;100673.41;;;23.78;47.96
10712;BME280;5407;51.234;6.804;2022-10-23T06:46:23;100674.97;;;23.79;48.02
10712;BME280;5407;51.234;6.804;2022-10-23T06:49:15;100673.78;;;23.80;47.90
10712;BME280;5407;51.234;6.804;2022-10-23T06:51:46;100667.50;;;23.80;47.81
10712;BME280;5407;51.234;6.804;2022-10-23T06:54:14;100656.88;;;23.78;47.80
10712;BME280;5407;51.234;6.804;2022-10-23T06:57:07;100653.72;;;23.80;47.84
10712;BME280;5407;51.234;6.804;2022-10-23T06:59:41;100652.91;;;23.79;47.81
10712;BME280;5407;51.234;6.804;2022-10-23T07:02:09;100652.91;;;23.79;48.00
10712;BME280;5407;51.234;6.804;2022-10-23T07:04:38;100652.91;;;23.79;47.93
10712;BME280;5407;51.234;6.804;2022-10-23T07:07:11;100648.19;;;23.80;48.01
10712;BME280;5407;51.234;6.804;2022-10-23T07:09:44;100658.44;;;23.79;48.03
10712;BME280;5407;51.234;6.804;2022-10-23T07:12:23;100659.22;;;23.80;48.08
10712;BME280;5407;51.234;6.804;2022-10-23T07:15:05;100659.22;;;23.80;48.00
10712;BME280;5407;51.234;6.804;2022-10-23T07:17:32;100663.94;;;23.79;48.05
10712;BME280;5407;51.234;6.804;2022-10-23T07:20:01;100663.19;;;23.79;48.10
10712;BME280;5407;51.234;6.804;2022-10-23T07:22:28;100658.44;;;23.79;47.99
10712;BME280;5407;51.234;6.804;2022-10-23T07:25:08;100658.44;;;23.79;47.85
10712;BME280;5407;51.234;6.804;2022-10-23T07:27:37;100660.00;;;23.80;48.03
10712;BME280;5407;51.234;6.804;2022-10-23T07:30:07;100661.19;;;23.79;47.89
10712;BME280;5407;51.234;6.804;2022-10-23T07:32:43;100653.72;;;23.80;48.01
10712;BME280;5407;51.234;6.804;2022-10-23T07:35:12;100641.91;;;23.79;47.91
10712;BME280;5407;51.234;6.804;2022-10-23T07:37:48;100643.47;;;23.80;47.85
10712;BME280;5407;51.234;6.804;2022-10-23T07:40:15;100631.66;;;23.80;48.00
10712;BME280;5407;51.234;6.804;2022-10-23T07:42:43;100633.63;;;23.79;47.95
10712;BME280;5407;51.234;6.804;2022-10-23T07:45:13;100637.97;;;23.80;47.96
10712;BME280;5407;51.234;6.804;2022-10-23T07:47:48;100635.22;;;23.80;48.07
10712;BME280;5407;51.234;6.804;2022-10-23T07:50:18;100631.66;;;23.80;48.02
10712;BME280;5407;51.234;6.804;2022-10-23T07:52:44;100636.00;;;23.81;48.03
10712;BME280;5407;51.234;6.804;2022-10-23T07:55:15;100628.50;;;23.81;48.05
10712;BME280;5407;51.234;6.804;2022-10-23T07:58:04;100627.63;;;23.84;48.02
10712;BME280;5407;51.234;6.804;2022-10-23T08:00:38;100630.72;;;23.86;48.06
10712;BME280;5407;51.234;6.804;2022-10-23T08:03:17;100615.75;;;23.87;48.15
10712;BME280;5407;51.234;6.804;2022-10-23T08:05:47;100614.91;;;23.90;47.91
10712;BME280;5407;51.234;6.804;2022-10-23T08:08:14;100615.66;;;23.91;48.01
10712;BME280;5407;51.234;6.804;2022-10-23T08:10:45;100616.81;;;23.93;48.02
10712;BME280;5407;51.234;6.804;2022-10-23T08:13:18;100621.09;;;23.94;47.90
10712;BME280;5407;51.234;6.804;2022-10-23T08:15:54;100613.72;;;23.91;48.06
10712;BME280;5407;51.234;6.804;2022-10-23T08:18:41;100614.13;;;23.90;48.18
10712;BME280;5407;51.234;6.804;2022-10-23T08:21:11;100611.78;;;23.88;48.34
10712;BME280;5407;51.234;6.804;2022-10-23T08:23:38;100619.28;;;23.88;48.40
10712;BME280;5407;51.234;6.804;2022-10-23T08:26:05;100620.91;;;23.85;48.51
10712;BME280;5407;51.234;6.804;2022-10-23T08:28:33;100622.13;;;23.84;48.44
10712;BME280;5407;51.234;6.804;2022-10-23T08:31:06;100619.03;;;23.82;48.87
10712;BME280;5407;51.234;6.804;2022-10-23T08:33:33;100621.78;;;23.82;49.81
10712;BME280;5407;51.234;6.804;2022-10-23T08:36:01;100615.94;;;23.80;50.26
10712;BME280;5407;51.234;6.804;2022-10-23T08:38:33;100629.28;;;23.82;50.59
10712;BME280;5407;51.234;6.804;2022-10-23T08:41:01;100615.84;;;23.84;50.99
10712;BME280;5407;51.234;6.804;2022-10-23T08:43:50;100620.16;;;23.85;51.25
10712;BME280;5407;51.234;6.804;2022-10-23T08:46:33;100621.25;;;23.87;51.13
10712;BME280;5407;51.234;6.804;2022-10-23T08:49:32;100611.78;;;23.88;50.93
10712;BME280;5407;51.234;6.804;2022-10-23T08:52:10;100600.75;;;23.88;50.68
10712;BME280;5407;51.234;6.804;2022-10-23T08:54:50;100602.34;;;23.89;50.77
10712;BME280;5407;51.234;6.804;2022-10-23T08:57:21;100603.88;;;23.90;50.71
10712;BME280;5407;51.234;6.804;2022-10-23T08:59:54;100610.16;;;23.91;50.65
10712;BME280;5407;51.234;6.804;2022-10-23T09:02:25;100604.22;;;23.92;50.57
10712;BME280;5407;51.234;6.804;2022-10-23T09:04:55;100599.06;;;23.94;50.50
10712;BME280;5407;51.234;6.804;2022-10-23T09:07:34;100592.34;;;23.95;50.23
10712;BME280;5407;51.234;6.804;2022-10-23T09:10:23;100573.06;;;23.95;50.16
10712;BME280;5407;51.234;6.804;2022-10-23T09:12:57;100579.59;;;24.01;50.04
10712;BME280;5407;51.234;6.804;2022-10-23T09:15:28;100576.81;;;24.01;50.03
10712;BME280;5407;51.234;6.804;2022-10-23T09:17:58;100570.53;;;24.01;49.55
10712;BME280;5407;51.234;6.804;2022-10-23T09:20:31;100557.53;;;24.01;49.70
10712;BME280;5407;51.234;6.804;2022-10-23T09:23:01;100550.81;;;24.02;49.32
10712;BME280;5407;51.234;6.804;2022-10-23T09:25:36;100550.81;;;24.02;49.34
10712;BME280;5407;51.234;6.804;2022-10-23T09:28:05;100556.31;;;24.02;49.39
10712;BME280;5407;51.234;6.804;2022-10-23T09:30:33;100545.31;;;24.02;49.09
10712;BME280;5407;51.234;6.804;2022-10-23T09:33:12;100548.47;;;24.01;49.03
10712;BME280;5407;51.234;6.804;2022-10-23T09:35:51;100537.44;;;24.01;49.05
10712;BME280;5407;51.234;6.804;2022-10-23T09:38:33;100532.72;;;24.01;48.83
10712;BME280;5407;51.234;6.804;2022-10-23T09:41:06;100527.97;;;24.02;48.86
10712;BME280;5407;51.234;6.804;2022-10-23T09:43:36;100528.75;;;24.02;48.96
10712;BME280;5407;51.234;6.804;2022-10-23T09:46:05;100528.75;;;24.02;48.70
10712;BME280;5407;51.234;6.804;2022-10-23T09:48:35;100530.31;;;24.03;48.63
10712;BME280;5407;51.234;6.804;2022-10-23T09:51:03;100522.03;;;24.03;48.59
10712;BME280;5407;51.234;6.804;2022-10-23T09:53:34;100519.28;;;24.03;48.77
10712;BME280;5407;51.234;6.804;2022-10-23T09:56:04;100515.31;;;24.04;48.63
10712;BME280;5407;51.234;6.804;2022-10-23T09:58:34;100512.56;;;24.04;48.71
10712;BME280;5407;51.234;6.804;2022-10-23T10:01:03;100505.06;;;24.05;48.69
10712;BME280;5407;51.234;6.804;2022-10-23T10:03:48;100496.38;;;24.06;48.62
10712;BME280;5407;51.234;6.804;2022-10-23T10:06:21;100494.81;;;24.05;48.44
10712;BME280;5407;51.234;6.804;2022-10-23T10:08:52;100502.63;;;24.07;48.56
10712;BME280;5407;51.234;6.804;2022-10-23T10:11:25;100503.44;;;24.07;48.42
10712;BME280;5407;51.234;6.804;2022-10-23T10:16:47;100488.44;;;24.08;48.43
10712;BME280;5407;51.234;6.804;2022-10-23T10:19:30;100495.50;;;24.09;48.43
10712;BME280;5407;51.234;6.804;2022-10-23T10:22:07;100478.97;;;24.09;48.22
10712;BME280;5407;51.234;6.804;2022-10-23T10:24:42;100485.22;;;24.10;48.43
10712;BME280;5407;51.234;6.804;2022-10-23T10:27:33;100497.78;;;24.11;48.63
10712;BME280;5407;51.234;6.804;2022-10-23T10:30:09;100504.09;;;24.11;48.36
10712;BME280;5407;51.234;6.804;2022-10-23T10:32:44;100492.66;;;24.13;48.20
10712;BME280;5407;51.234;6.804;2022-10-23T10:35:21;100486.34;;;24.12;48.32
10712;BME280;5407;51.234;6.804;2022-10-23T10:38:02;100465.84;;;24.13;48.45
10712;BME280;5407;51.234;6.804;2022-10-23T10:40:33;100467.38;;;24.14;48.38
10712;BME280;5407;51.234;6.804;2022-10-23T10:43:16;100464.63;;;24.14;48.47
10712;BME280;5407;51.234;6.804;2022-10-23T10:45:48;100455.16;;;24.15;48.23
10712;BME280;5407;51.234;6.804;2022-10-23T10:48:28;100439.41;;;24.16;48.26
10712;BME280;5407;51.234;6.804;2022-10-23T10:51:29;100434.22;;;24.18;48.37
10712;BME280;5407;51.234;6.804;2022-10-23T10:54:09;100424.41;;;24.17;48.34
10712;BME280;5407;51.234;6.804;2022-10-23T10:56:42;100419.97;;;24.19;48.18
10712;BME280;5407;51.234;6.804;2022-10-23T10:59:15;100421.97;;;24.19;48.20
10712;BME280;5407;51.234;6.804;2022-10-23T11:01:48;100415.25;;;24.20;48.03
10712;BME280;5407;51.234;6.804;2022-10-23T11:04:27;100405.00;;;24.20;48.04
10712;BME280;5407;51.234;6.804;2022-10-23T11:06:57;100392.75;;;24.21;47.97
10712;BME280;5407;51.234;6.804;2022-10-23T11:09:27;100401.03;;;24.21;48.03
10712;BME280;5407;51.234;6.804;2022-10-23T11:11:56;100398.25;;;24.21;48.06
10712;BME280;5407;51.234;6.804;2022-10-23T11:14:26;100392.75;;;24.21;47.84
10712;BME280;5407;51.234;6.804;2022-10-23T11:17:00;100393.09;;;24.23;47.86
10712;BME280;5407;51.234;6.804;2022-10-23T11:19:33;100393.09;;;24.23;47.72
10712;BME280;5407;51.234;6.804;2022-10-23T11:22:05;100389.13;;;24.24;47.87
10712;BME280;5407;51.234;6.804;2022-10-23T11:25:15;100377.66;;;24.26;47.77
10712;BME280;5407;51.234;6.804;2022-10-23T11:27:56;100379.19;;;24.27;47.60
10712;BME280;5407;51.234;6.804;2022-10-23T11:30:34;100376.88;;;24.25;47.87
10712;BME280;5407;51.234;6.804;2022-10-23T11:33:37;100365.09;;;24.25;47.65
10712;BME280;5407;51.234;6.804;2022-10-23T11:36:12;100346.88;;;24.27;47.64
10712;BME280;5407;51.234;6.804;2022-10-23T11:38:43;100355.94;;;24.28;47.52
10712;BME280;5407;51.234;6.804;2022-10-23T11:41:19;100365.41;;;24.27;47.56
10712;BME280;5407;51.234;6.804;2022-10-23T11:43:49;100355.16;;;24.27;47.71
10712;BME280;5407;51.234;6.804;2022-10-23T11:46:30;100373.22;;;24.28;47.41
10712;BME280;5407;51.234;6.804;2022-10-23T11:48:58;100362.53;;;24.30;47.57
10712;BME280;5407;51.234;6.804;2022-10-23T11:51:28;100354.25;;;24.30;47.62
10712;BME280;5407;51.234;6.804;2022-10-23T11:54:22;100355.47;;;24.29;47.70
10712;BME280;5407;51.234;6.804;2022-10-23T11:57:07;100354.59;;;24.32;47.30
10712;BME280;5407;51.234;6.804;2022-10-23T11:59:37;100354.59;;;24.32;47.40
10712;BME280;5407;51.234;6.804;2022-10-23T12:02:25;100345.78;;;24.37;47.44
10712;BME280;5407;51.234;6.804;2022-10-23T12:04:57;100350.75;;;24.42;47.38
10712;BME280;5407;51.234;6.804;2022-10-23T12:07:28;100346.66;;;24.47;47.04
10712;BME280;5407;51.234;6.804;2022-10-23T12:09:57;100342.25;;;24.49;47.24
10712;BME280;5407;51.234;6.804;2022-10-23T12:12:28;100346.91;;;24.52;47.23
10712;BME280;5407;51.234;6.804;2022-10-23T12:15:17;100338.97;;;24.54;46.89
10712;BME280;5407;51.234;6.804;2022-10-23T12:17:48;100329.00;;;24.57;47.08
10712;BME280;5407;51.234;6.804;2022-10-23T12:20:27;100328.91;;;24.60;46.81
10712;BME280;5407;51.234;6.804;2022-10-23T12:23:14;100330.44;;;24.61;46.49
10712;BME280;5407;51.234;6.804;2022-10-23T12:25:59;100316.97;;;24.63;46.24
10712;BME280;5407;51.234;6.804;2022-10-23T12:28:33;100321.28;;;24.64;46.43
10712;BME280;5407;51.234;6.804;2022-10-23T12:31:15;100324.38;;;24.66;46.45
10712;BME280;5407;51.234;6.804;2022-10-23T12:33:54;100314.13;;;24.67;46.60
10712;BME280;5407;51.234;6.804;2022-10-23T12:36:34;100300.34;;;24.67;46.54
10712;BME280;5407;51.234;6.804;2022-10-23T12:39:24;100298.31;;;24.67;46.72
10712;BME280;5407;51.234;6.804;2022-10-23T12:41:51;100295.91;;;24.69;46.40
10712;BME280;5407;51.234;6.804;2022-10-23T12:44:19;100299.88;;;24.68;46.47
10712;BME280;5407;51.234;6.804;2022-10-23T12:46:47;100285.00;;;24.66;46.45
10712;BME280;5407;51.234;6.804;2022-10-23T12:49:18;100284.66;;;24.64;46.69
10712;BME280;5407;51.234;6.804;2022-10-23T12:51:53;100283.56;;;24.61;46.92
10712;BME280;5407;51.234;6.804;2022-10-23T12:54:21;100280.69;;;24.65;46.66
10712;BME280;5407;51.234;6.804;2022-10-23T12:56:48;100275.50;;;24.67;46.71
10712;BME280;5407;51.234;6.804;2022-10-23T12:59:17;100288.84;;;24.68;46.66
10712;BME280;5407;51.234;6.804;2022-10-23T13:01:45;100272.59;;;24.70;46.55
10712;BME280;5407;51.234;6.804;2022-10-23T13:04:19;100256.94;;;24.67;46.71
10712;BME280;5407;51.234;6.804;2022-10-23T13:06:48;100251.75;;;24.69;46.77
10712;BME280;5407;51.234;6.804;2022-10-23T13:09:21;100258.81;;;24.70;47.08
10712;BME280;5407;51.234;6.804;2022-10-23T13:12:16;100252.88;;;24.72;46.82
10712;BME280;5407;51.234;6.804;2022-10-23T13:14:54;100259.47;;;24.74;46.80
10712;BME280;5407;51.234;6.804;2022-10-23T13:17:32;100257.91;;;24.73;46.75
10712;BME280;5407;51.234;6.804;2022-10-23T13:22:56;100233.75;;;24.77;46.77
10712;BME280;5407;51.234;6.804;2022-10-23T13:25:25;100223.47;;;24.78;46.75
10712;BME280;5407;51.234;6.804;2022-10-23T13:28:10;100218.41;;;24.76;46.96
10712;BME280;5407;51.234;6.804;2022-10-23T13:30:39;100211.34;;;24.75;46.70
10712;BME280;5407;51.234;6.804;2022-10-23T13:33:20;100210.69;;;24.71;46.61
10712;BME280;5407;51.234;6.804;2022-10-23T13:35:55;100211.47;;;24.72;46.85
10712;BME280;5407;51.234;6.804;2022-10-23T13:38:30;100199.34;;;24.69;46.59